sensor_id;sensor_type;location;lat;lon;timestamp;P1;durP1;ratioP1;P2;durP2;ratioP2
48809;SDS011;40070;47.322;18.784;2023-04-10T00:01:11;10.09;;;4.26;;
48809;SDS011;40070;47.322;18.784;2023-04-10T00:03:12;11.88;;;5.05;;
48809;SDS011;40070;47.322;18.784;2023-04-10T00:05:12;11.78;;;5.15;;
48809;SDS011;40070;47.322;18.784;2023-04-10T00:07:13;9.63;;;4.85;;
48809;SDS011;40070;47.322;18.784;2023-04-10T00:09:14;10.96;;;5.54;;
48809;SDS011;40070;47.322;18.784;2023-04-10T00:11:15;12.11;;;5.74;;
48809;SDS011;40070;47.322;18.784;2023-04-10T00:13:16;11.40;;;5.24;;
48809;SDS011;40070;47.322;18.784;2023-04-10T00:15:17;10.64;;;5.24;;
48809;SDS011;40070;47.322;18.784;2023-04-10T00:17:18;10.85;;;5.25;;
48809;SDS011;40070;47.322;18.784;2023-04-10T00:19:19;9.17;;;4.26;;
48809;SDS011;40070;47.322;18.784;2023-04-10T00:21:20;10.58;;;4.95;;
48809;SDS011;40070;47.322;18.784;2023-04-10T00:23:21;11.04;;;4.95;;
48809;SDS011;40070;47.322;18.784;2023-04-10T00:25:22;11.50;;;5.34;;
48809;SDS011;40070;47.322;18.784;2023-04-10T00:27:23;13.64;;;5.82;;
48809;SDS011;40070;47.322;18.784;2023-04-10T00:29:23;11.78;;;5.53;;
48809;SDS011;40070;47.322;18.784;2023-04-10T00:31:24;12.04;;;5.03;;
48809;SDS011;40070;47.322;18.784;2023-04-10T00:33:25;11.67;;;5.62;;
48809;SDS011;40070;47.322;18.784;2023-04-10T00:35:26;9.34;;;4.93;;
48809;SDS011;40070;47.322;18.784;2023-04-10T00:37:28;10.97;;;5.14;;
48809;SDS011;40070;47.322;18.784;2023-04-10T00:39:29;10.90;;;4.55;;
48809;SDS011;40070;47.322;18.784;2023-04-10T00:41:30;18.47;;;5.04;;
48809;SDS011;40070;47.322;18.784;2023-04-10T00:43:31;15.94;;;5.73;;
48809;SDS011;40070;47.322;18.784;2023-04-10T00:45:32;13.25;;;4.65;;
48809;SDS011;40070;47.322;18.784;2023-04-10T00:47:34;10.75;;;5.34;;
48809;SDS011;40070;47.322;18.784;2023-04-10T00:49:35;11.38;;;4.94;;
48809;SDS011;40070;47.322;18.784;2023-04-10T00:51:36;11.00;;;5.13;;
48809;SDS011;40070;47.322;18.784;2023-04-10T00:53:37;11.22;;;5.63;;
48809;SDS011;40070;47.322;18.784;2023-04-10T00:55:39;11.69;;;5.73;;
48809;SDS011;40070;47.322;18.784;2023-04-10T00:57:43;11.79;;;5.71;;
48809;SDS011;40070;47.322;18.784;2023-04-10T00:59:40;15.23;;;6.60;;
48809;SDS011;40070;47.322;18.784;2023-04-10T01:01:41;10.83;;;5.23;;
48809;SDS011;40070;47.322;18.784;2023-04-10T01:03:43;11.59;;;4.94;;
48809;SDS011;40070;47.322;18.784;2023-04-10T01:05:46;13.31;;;5.53;;
48809;SDS011;40070;47.322;18.784;2023-04-10T01:08:16;10.98;;;5.63;;
48809;SDS011;40070;47.322;18.784;2023-04-10T01:10:26;11.95;;;4.94;;
48809;SDS011;40070;47.322;18.784;2023-04-10T01:12:37;9.88;;;5.04;;
48809;SDS011;40070;47.322;18.784;2023-04-10T01:14:57;11.36;;;4.94;;
48809;SDS011;40070;47.322;18.784;2023-04-10T01:17:12;11.26;;;5.24;;
48809;SDS011;40070;47.322;18.784;2023-04-10T01:19:32;14.85;;;6.82;;
48809;SDS011;40070;47.322;18.784;2023-04-10T01:21:15;13.10;;;5.94;;
48809;SDS011;40070;47.322;18.784;2023-04-10T01:25:47;12.03;;;6.23;;
48809;SDS011;40070;47.322;18.784;2023-04-10T01:28:04;14.66;;;5.93;;
48809;SDS011;40070;47.322;18.784;2023-04-10T01:29:59;13.82;;;6.13;;
48809;SDS011;40070;47.322;18.784;2023-04-10T01:32:10;11.92;;;6.42;;
48809;SDS011;40070;47.322;18.784;2023-04-10T01:34:16;11.08;;;5.04;;
48809;SDS011;40070;47.322;18.784;2023-04-10T01:36:23;12.85;;;5.34;;
48809;SDS011;40070;47.322;18.784;2023-04-10T01:38:20;13.61;;;6.03;;
48809;SDS011;40070;47.322;18.784;2023-04-10T01:40:22;12.87;;;6.33;;
48809;SDS011;40070;47.322;18.784;2023-04-10T01:42:27;12.88;;;5.93;;
48809;SDS011;40070;47.322;18.784;2023-04-10T01:44:28;14.05;;;6.52;;
48809;SDS011;40070;47.322;18.784;2023-04-10T01:46:30;11.97;;;5.81;;
48809;SDS011;40070;47.322;18.784;2023-04-10T01:48:31;14.35;;;6.29;;
48809;SDS011;40070;47.322;18.784;2023-04-10T01:50:34;13.50;;;6.58;;
48809;SDS011;40070;47.322;18.784;2023-04-10T01:52:36;13.37;;;6.29;;
48809;SDS011;40070;47.322;18.784;2023-04-10T01:54:37;13.37;;;5.70;;
48809;SDS011;40070;47.322;18.784;2023-04-10T01:56:38;15.00;;;5.91;;
48809;SDS011;40070;47.322;18.784;2023-04-10T01:58:40;14.61;;;6.11;;
48809;SDS011;40070;47.322;18.784;2023-04-10T02:00:41;12.31;;;5.23;;
48809;SDS011;40070;47.322;18.784;2023-04-10T02:02:42;14.71;;;6.12;;
48809;SDS011;40070;47.322;18.784;2023-04-10T02:04:43;15.58;;;6.33;;
48809;SDS011;40070;47.322;18.784;2023-04-10T02:09:18;11.40;;;5.64;;
48809;SDS011;40070;47.322;18.784;2023-04-10T02:11:12;14.19;;;6.62;;
48809;SDS011;40070;47.322;18.784;2023-04-10T02:13:16;14.29;;;6.02;;
48809;SDS011;40070;47.322;18.784;2023-04-10T02:15:17;13.54;;;6.50;;
48809;SDS011;40070;47.322;18.784;2023-04-10T02:17:19;14.78;;;6.21;;
48809;SDS011;40070;47.322;18.784;2023-04-10T02:19:21;10.91;;;5.52;;
48809;SDS011;40070;47.322;18.784;2023-04-10T02:21:23;10.95;;;5.33;;
48809;SDS011;40070;47.322;18.784;2023-04-10T02:23:24;13.58;;;6.32;;
48809;SDS011;40070;47.322;18.784;2023-04-10T02:25:25;9.77;;;4.84;;
48809;SDS011;40070;47.322;18.784;2023-04-10T02:27:32;13.04;;;6.23;;
48809;SDS011;40070;47.322;18.784;2023-04-10T02:29:27;14.19;;;6.13;;
48809;SDS011;40070;47.322;18.784;2023-04-10T02:31:27;11.65;;;5.83;;
48809;SDS011;40070;47.322;18.784;2023-04-10T02:33:29;11.65;;;5.54;;
48809;SDS011;40070;47.322;18.784;2023-04-10T02:35:30;13.64;;;5.54;;
48809;SDS011;40070;47.322;18.784;2023-04-10T02:37:31;13.82;;;5.73;;
48809;SDS011;40070;47.322;18.784;2023-04-10T02:39:32;11.92;;;5.62;;
48809;SDS011;40070;47.322;18.784;2023-04-10T02:41:33;14.44;;;6.20;;
48809;SDS011;40070;47.322;18.784;2023-04-10T02:43:33;12.05;;;5.99;;
48809;SDS011;40070;47.322;18.784;2023-04-10T02:45:35;14.76;;;6.19;;
48809;SDS011;40070;47.322;18.784;2023-04-10T02:47:36;11.19;;;6.00;;
48809;SDS011;40070;47.322;18.784;2023-04-10T02:49:37;12.38;;;5.71;;
48809;SDS011;40070;47.322;18.784;2023-04-10T02:51:37;10.55;;;5.41;;
48809;SDS011;40070;47.322;18.784;2023-04-10T02:53:38;10.96;;;6.01;;
48809;SDS011;40070;47.322;18.784;2023-04-10T02:55:40;15.47;;;6.41;;
48809;SDS011;40070;47.322;18.784;2023-04-10T02:57:41;13.81;;;6.02;;
48809;SDS011;40070;47.322;18.784;2023-04-10T02:59:42;14.30;;;6.12;;
48809;SDS011;40070;47.322;18.784;2023-04-10T03:01:44;14.68;;;6.32;;
48809;SDS011;40070;47.322;18.784;2023-04-10T03:03:44;13.51;;;6.11;;
48809;SDS011;40070;47.322;18.784;2023-04-10T03:05:45;13.78;;;6.71;;
48809;SDS011;40070;47.322;18.784;2023-04-10T03:07:46;13.59;;;6.51;;
48809;SDS011;40070;47.322;18.784;2023-04-10T03:09:47;14.06;;;6.41;;
48809;SDS011;40070;47.322;18.784;2023-04-10T03:11:48;13.22;;;6.11;;
48809;SDS011;40070;47.322;18.784;2023-04-10T03:13:49;14.62;;;6.01;;
48809;SDS011;40070;47.322;18.784;2023-04-10T03:15:49;15.60;;;6.22;;
48809;SDS011;40070;47.322;18.784;2023-04-10T03:17:50;14.05;;;6.03;;
48809;SDS011;40070;47.322;18.784;2023-04-10T03:19:51;12.31;;;5.52;;
48809;SDS011;40070;47.322;18.784;2023-04-10T03:21:52;13.75;;;6.10;;
48809;SDS011;40070;47.322;18.784;2023-04-10T03:23:53;16.60;;;6.50;;
48809;SDS011;40070;47.322;18.784;2023-04-10T03:25:54;14.95;;;6.88;;
48809;SDS011;40070;47.322;18.784;2023-04-10T03:27:55;14.66;;;6.68;;
48809;SDS011;40070;47.322;18.784;2023-04-10T03:29:56;15.24;;;6.31;;
48809;SDS011;40070;47.322;18.784;2023-04-10T03:31:57;12.77;;;5.81;;
48809;SDS011;40070;47.322;18.784;2023-04-10T03:33:58;12.83;;;6.01;;
48809;SDS011;40070;47.322;18.784;2023-04-10T03:35:59;14.07;;;6.11;;
48809;SDS011;40070;47.322;18.784;2023-04-10T03:38:00;13.85;;;6.41;;
48809;SDS011;40070;47.322;18.784;2023-04-10T03:40:04;12.71;;;6.50;;
48809;SDS011;40070;47.322;18.784;2023-04-10T03:42:01;14.02;;;7.19;;
48809;SDS011;40070;47.322;18.784;2023-04-10T03:44:02;14.11;;;6.28;;
48809;SDS011;40070;47.322;18.784;2023-04-10T03:46:03;13.43;;;6.47;;
48809;SDS011;40070;47.322;18.784;2023-04-10T03:48:04;14.34;;;7.15;;
48809;SDS011;40070;47.322;18.784;2023-04-10T03:50:05;13.68;;;6.94;;
48809;SDS011;40070;47.322;18.784;2023-04-10T03:52:06;13.59;;;6.84;;
48809;SDS011;40070;47.322;18.784;2023-04-10T03:54:07;16.52;;;7.32;;
48809;SDS011;40070;47.322;18.784;2023-04-10T03:56:08;15.61;;;7.61;;
48809;SDS011;40070;47.322;18.784;2023-04-10T03:58:09;14.45;;;7.22;;
48809;SDS011;40070;47.322;18.784;2023-04-10T04:00:10;14.11;;;7.41;;
48809;SDS011;40070;47.322;18.784;2023-04-10T04:02:11;13.95;;;6.73;;
48809;SDS011;40070;47.322;18.784;2023-04-10T04:04:12;13.85;;;7.19;;
48809;SDS011;40070;47.322;18.784;2023-04-10T04:06:13;16.00;;;7.62;;
48809;SDS011;40070;47.322;18.784;2023-04-10T04:08:13;11.90;;;6.65;;
48809;SDS011;40070;47.322;18.784;2023-04-10T04:10:14;14.38;;;7.52;;
48809;SDS011;40070;47.322;18.784;2023-04-10T04:12:15;14.13;;;6.94;;
48809;SDS011;40070;47.322;18.784;2023-04-10T04:14:16;14.38;;;6.45;;
48809;SDS011;40070;47.322;18.784;2023-04-10T04:16:17;15.62;;;7.42;;
48809;SDS011;40070;47.322;18.784;2023-04-10T04:18:18;14.06;;;7.04;;
48809;SDS011;40070;47.322;18.784;2023-04-10T04:20:19;18.26;;;8.31;;
48809;SDS011;40070;47.322;18.784;2023-04-10T04:22:20;19.25;;;9.58;;
48809;SDS011;40070;47.322;18.784;2023-04-10T04:24:21;18.26;;;8.66;;
48809;SDS011;40070;47.322;18.784;2023-04-10T04:26:22;15.68;;;7.59;;
48809;SDS011;40070;47.322;18.784;2023-04-10T04:28:23;17.82;;;8.11;;
48809;SDS011;40070;47.322;18.784;2023-04-10T04:30:24;17.26;;;6.75;;
48809;SDS011;40070;47.322;18.784;2023-04-10T04:32:25;15.88;;;7.04;;
48809;SDS011;40070;47.322;18.784;2023-04-10T04:34:26;14.74;;;7.13;;
48809;SDS011;40070;47.322;18.784;2023-04-10T04:36:27;13.20;;;7.23;;
48809;SDS011;40070;47.322;18.784;2023-04-10T04:38:28;13.43;;;6.73;;
48809;SDS011;40070;47.322;18.784;2023-04-10T04:40:28;17.12;;;7.12;;
48809;SDS011;40070;47.322;18.784;2023-04-10T04:42:29;17.38;;;7.51;;
48809;SDS011;40070;47.322;18.784;2023-04-10T04:44:31;15.32;;;7.22;;
48809;SDS011;40070;47.322;18.784;2023-04-10T04:46:32;14.80;;;6.84;;
48809;SDS011;40070;47.322;18.784;2023-04-10T04:48:34;17.34;;;7.70;;
48809;SDS011;40070;47.322;18.784;2023-04-10T04:50:34;12.37;;;6.44;;
48809;SDS011;40070;47.322;18.784;2023-04-10T04:52:35;15.25;;;8.00;;
48809;SDS011;40070;47.322;18.784;2023-04-10T04:54:36;18.81;;;8.48;;
48809;SDS011;40070;47.322;18.784;2023-04-10T04:56:38;16.99;;;7.50;;
48809;SDS011;40070;47.322;18.784;2023-04-10T04:58:38;18.11;;;7.38;;
48809;SDS011;40070;47.322;18.784;2023-04-10T05:00:40;14.19;;;6.61;;
48809;SDS011;40070;47.322;18.784;2023-04-10T05:02:41;13.81;;;6.34;;
48809;SDS011;40070;47.322;18.784;2023-04-10T05:04:41;15.19;;;6.95;;
48809;SDS011;40070;47.322;18.784;2023-04-10T05:06:42;12.70;;;6.27;;
48809;SDS011;40070;47.322;18.784;2023-04-10T05:08:43;18.86;;;8.24;;
48809;SDS011;40070;47.322;18.784;2023-04-10T05:10:45;16.60;;;7.25;;
48809;SDS011;40070;47.322;18.784;2023-04-10T05:12:46;16.02;;;7.93;;
48809;SDS011;40070;47.322;18.784;2023-04-10T05:14:47;15.06;;;7.14;;
48809;SDS011;40070;47.322;18.784;2023-04-10T05:16:48;15.83;;;7.24;;
48809;SDS011;40070;47.322;18.784;2023-04-10T05:18:48;14.75;;;7.44;;
48809;SDS011;40070;47.322;18.784;2023-04-10T05:20:49;16.26;;;6.85;;
48809;SDS011;40070;47.322;18.784;2023-04-10T05:22:50;13.44;;;6.85;;
48809;SDS011;40070;47.322;18.784;2023-04-10T05:24:51;16.73;;;7.04;;
48809;SDS011;40070;47.322;18.784;2023-04-10T05:26:52;15.24;;;7.64;;
48809;SDS011;40070;47.322;18.784;2023-04-10T05:28:53;15.64;;;6.77;;
48809;SDS011;40070;47.322;18.784;2023-04-10T05:30:54;15.85;;;7.26;;
48809;SDS011;40070;47.322;18.784;2023-04-10T05:32:55;14.30;;;6.67;;
48809;SDS011;40070;47.322;18.784;2023-04-10T05:34:56;16.56;;;7.16;;
48809;SDS011;40070;47.322;18.784;2023-04-10T05:36:57;13.49;;;7.34;;
48809;SDS011;40070;47.322;18.784;2023-04-10T05:38:57;17.68;;;7.93;;
48809;SDS011;40070;47.322;18.784;2023-04-10T05:40:59;11.28;;;6.57;;
48809;SDS011;40070;47.322;18.784;2023-04-10T05:43:00;14.04;;;6.77;;
48809;SDS011;40070;47.322;18.784;2023-04-10T05:45:01;13.28;;;6.39;;
48809;SDS011;40070;47.322;18.784;2023-04-10T05:47:03;14.67;;;7.36;;
48809;SDS011;40070;47.322;18.784;2023-04-10T05:49:04;15.12;;;6.88;;
48809;SDS011;40070;47.322;18.784;2023-04-10T05:51:05;15.66;;;6.98;;
48809;SDS011;40070;47.322;18.784;2023-04-10T05:53:09;14.65;;;6.50;;
48809;SDS011;40070;47.322;18.784;2023-04-10T05:55:07;12.22;;;5.81;;
48809;SDS011;40070;47.322;18.784;2023-04-10T05:57:08;13.73;;;6.99;;
48809;SDS011;40070;47.322;18.784;2023-04-10T05:59:09;14.08;;;6.51;;
48809;SDS011;40070;47.322;18.784;2023-04-10T06:01:09;13.53;;;6.61;;
48809;SDS011;40070;47.322;18.784;2023-04-10T06:03:10;13.98;;;6.71;;
48809;SDS011;40070;47.322;18.784;2023-04-10T06:05:11;14.32;;;6.60;;
48809;SDS011;40070;47.322;18.784;2023-04-10T06:07:12;11.70;;;6.40;;
48809;SDS011;40070;47.322;18.784;2023-04-10T06:09:13;14.64;;;6.70;;
48809;SDS011;40070;47.322;18.784;2023-04-10T06:11:14;14.61;;;6.70;;
48809;SDS011;40070;47.322;18.784;2023-04-10T06:13:15;13.36;;;6.30;;
48809;SDS011;40070;47.322;18.784;2023-04-10T06:15:16;13.16;;;6.02;;
48809;SDS011;40070;47.322;18.784;2023-04-10T06:17:17;13.01;;;6.32;;
48809;SDS011;40070;47.322;18.784;2023-04-10T06:19:18;14.01;;;6.22;;
48809;SDS011;40070;47.322;18.784;2023-04-10T06:21:19;11.05;;;5.63;;
48809;SDS011;40070;47.322;18.784;2023-04-10T06:23:21;12.40;;;5.54;;
48809;SDS011;40070;47.322;18.784;2023-04-10T06:25:22;10.97;;;5.53;;
48809;SDS011;40070;47.322;18.784;2023-04-10T06:27:23;12.82;;;5.73;;
48809;SDS011;40070;47.322;18.784;2023-04-10T06:29:24;13.21;;;6.22;;
48809;SDS011;40070;47.322;18.784;2023-04-10T06:31:25;11.92;;;6.23;;
48809;SDS011;40070;47.322;18.784;2023-04-10T06:33:26;12.03;;;6.13;;
48809;SDS011;40070;47.322;18.784;2023-04-10T06:35:27;12.37;;;5.83;;
48809;SDS011;40070;47.322;18.784;2023-04-10T06:37:28;12.60;;;5.93;;
48809;SDS011;40070;47.322;18.784;2023-04-10T06:39:29;12.69;;;6.13;;
48809;SDS011;40070;47.322;18.784;2023-04-10T06:41:30;12.82;;;6.04;;
48809;SDS011;40070;47.322;18.784;2023-04-10T06:43:34;10.20;;;5.25;;
48809;SDS011;40070;47.322;18.784;2023-04-10T06:45:32;11.65;;;6.04;;
48809;SDS011;40070;47.322;18.784;2023-04-10T06:47:33;11.09;;;5.45;;
48809;SDS011;40070;47.322;18.784;2023-04-10T06:49:34;11.79;;;5.95;;
48809;SDS011;40070;47.322;18.784;2023-04-10T06:51:35;10.09;;;5.16;;
48809;SDS011;40070;47.322;18.784;2023-04-10T06:53:36;12.55;;;6.54;;
48809;SDS011;40070;47.322;18.784;2023-04-10T06:55:37;14.71;;;6.44;;
48809;SDS011;40070;47.322;18.784;2023-04-10T06:57:38;13.14;;;6.65;;
48809;SDS011;40070;47.322;18.784;2023-04-10T06:59:39;11.37;;;5.46;;
48809;SDS011;40070;47.322;18.784;2023-04-10T07:01:40;13.78;;;6.75;;
48809;SDS011;40070;47.322;18.784;2023-04-10T07:03:41;11.61;;;5.86;;
48809;SDS011;40070;47.322;18.784;2023-04-10T07:05:42;13.78;;;6.75;;
48809;SDS011;40070;47.322;18.784;2023-04-10T07:07:43;13.77;;;5.96;;
48809;SDS011;40070;47.322;18.784;2023-04-10T07:09:44;13.52;;;6.06;;
48809;SDS011;40070;47.322;18.784;2023-04-10T07:11:45;12.09;;;5.67;;
48809;SDS011;40070;47.322;18.784;2023-04-10T07:13:45;12.73;;;6.36;;
48809;SDS011;40070;47.322;18.784;2023-04-10T07:15:46;12.93;;;6.36;;
48809;SDS011;40070;47.322;18.784;2023-04-10T07:17:47;15.46;;;6.66;;
48809;SDS011;40070;47.322;18.784;2023-04-10T07:19:48;11.92;;;6.16;;
48809;SDS011;40070;47.322;18.784;2023-04-10T07:21:49;12.81;;;6.17;;
48809;SDS011;40070;47.322;18.784;2023-04-10T07:23:50;14.42;;;5.97;;
48809;SDS011;40070;47.322;18.784;2023-04-10T07:25:51;12.23;;;5.87;;
48809;SDS011;40070;47.322;18.784;2023-04-10T07:27:52;12.68;;;6.26;;
48809;SDS011;40070;47.322;18.784;2023-04-10T07:29:53;11.97;;;6.17;;
48809;SDS011;40070;47.322;18.784;2023-04-10T07:31:54;14.43;;;6.47;;
48809;SDS011;40070;47.322;18.784;2023-04-10T07:33:55;15.49;;;6.07;;
48809;SDS011;40070;47.322;18.784;2023-04-10T07:35:55;13.85;;;6.67;;
48809;SDS011;40070;47.322;18.784;2023-04-10T07:37:56;13.34;;;6.57;;
48809;SDS011;40070;47.322;18.784;2023-04-10T07:39:57;10.73;;;5.38;;
48809;SDS011;40070;47.322;18.784;2023-04-10T07:41:58;13.74;;;6.57;;
48809;SDS011;40070;47.322;18.784;2023-04-10T07:43:59;14.31;;;6.27;;
48809;SDS011;40070;47.322;18.784;2023-04-10T07:46:00;12.39;;;5.77;;
48809;SDS011;40070;47.322;18.784;2023-04-10T07:48:01;12.82;;;6.68;;
48809;SDS011;40070;47.322;18.784;2023-04-10T07:50:02;14.12;;;6.18;;
48809;SDS011;40070;47.322;18.784;2023-04-10T07:52:03;12.85;;;6.88;;
48809;SDS011;40070;47.322;18.784;2023-04-10T07:54:04;12.38;;;5.98;;
48809;SDS011;40070;47.322;18.784;2023-04-10T07:56:15;14.40;;;5.68;;
48809;SDS011;40070;47.322;18.784;2023-04-10T07:58:13;12.29;;;6.18;;
48809;SDS011;40070;47.322;18.784;2023-04-10T08:00:14;13.89;;;6.58;;
48809;SDS011;40070;47.322;18.784;2023-04-10T08:02:15;14.28;;;5.99;;
48809;SDS011;40070;47.322;18.784;2023-04-10T08:04:16;11.56;;;5.89;;
48809;SDS011;40070;47.322;18.784;2023-04-10T08:06:17;12.13;;;6.09;;
48809;SDS011;40070;47.322;18.784;2023-04-10T08:08:18;12.56;;;6.29;;
48809;SDS011;40070;47.322;18.784;2023-04-10T08:10:19;14.45;;;6.59;;
48809;SDS011;40070;47.322;18.784;2023-04-10T08:12:19;12.02;;;5.79;;
48809;SDS011;40070;47.322;18.784;2023-04-10T08:14:21;13.75;;;6.29;;
48809;SDS011;40070;47.322;18.784;2023-04-10T08:16:23;11.70;;;5.39;;
48809;SDS011;40070;47.322;18.784;2023-04-10T08:18:23;11.72;;;5.89;;
48809;SDS011;40070;47.322;18.784;2023-04-10T08:20:24;13.20;;;5.29;;
48809;SDS011;40070;47.322;18.784;2023-04-10T08:22:25;13.40;;;5.59;;
48809;SDS011;40070;47.322;18.784;2023-04-10T08:24:29;12.29;;;5.69;;
48809;SDS011;40070;47.322;18.784;2023-04-10T08:26:30;12.02;;;5.29;;
48809;SDS011;40070;47.322;18.784;2023-04-10T08:28:31;11.58;;;4.80;;
48809;SDS011;40070;47.322;18.784;2023-04-10T08:30:32;9.79;;;4.40;;
48809;SDS011;40070;47.322;18.784;2023-04-10T08:32:33;10.77;;;5.20;;
48809;SDS011;40070;47.322;18.784;2023-04-10T08:34:34;9.79;;;5.10;;
48809;SDS011;40070;47.322;18.784;2023-04-10T08:36:35;11.19;;;4.70;;
48809;SDS011;40070;47.322;18.784;2023-04-10T08:38:36;10.11;;;4.90;;
48809;SDS011;40070;47.322;18.784;2023-04-10T08:40:37;10.60;;;4.90;;
48809;SDS011;40070;47.322;18.784;2023-04-10T08:42:38;9.51;;;4.20;;
48809;SDS011;40070;47.322;18.784;2023-04-10T08:44:39;9.62;;;4.60;;
48809;SDS011;40070;47.322;18.784;2023-04-10T08:46:41;10.31;;;4.70;;
48809;SDS011;40070;47.322;18.784;2023-04-10T08:48:51;10.32;;;4.80;;
48809;SDS011;40070;47.322;18.784;2023-04-10T08:50:44;10.83;;;4.50;;
48809;SDS011;40070;47.322;18.784;2023-04-10T08:52:50;9.54;;;4.30;;
48809;SDS011;40070;47.322;18.784;2023-04-10T08:54:56;8.35;;;4.00;;
48809;SDS011;40070;47.322;18.784;2023-04-10T08:56:57;9.85;;;4.00;;
48809;SDS011;40070;47.322;18.784;2023-04-10T08:58:58;6.27;;;3.30;;
48809;SDS011;40070;47.322;18.784;2023-04-10T09:00:59;7.96;;;3.80;;
48809;SDS011;40070;47.322;18.784;2023-04-10T09:03:00;7.86;;;3.30;;
48809;SDS011;40070;47.322;18.784;2023-04-10T09:05:01;7.76;;;3.30;;
48809;SDS011;40070;47.322;18.784;2023-04-10T09:07:02;8.27;;;3.90;;
48809;SDS011;40070;47.322;18.784;2023-04-10T09:09:06;7.87;;;4.20;;
48809;SDS011;40070;47.322;18.784;2023-04-10T09:11:04;7.97;;;4.20;;
48809;SDS011;40070;47.322;18.784;2023-04-10T09:13:15;9.27;;;4.60;;
48809;SDS011;40070;47.322;18.784;2023-04-10T09:15:16;8.76;;;4.30;;
48809;SDS011;40070;47.322;18.784;2023-04-10T09:17:18;7.77;;;4.10;;
48809;SDS011;40070;47.322;18.784;2023-04-10T09:19:28;9.46;;;3.80;;
48809;SDS011;40070;47.322;18.784;2023-04-10T09:21:20;7.67;;;3.50;;
48809;SDS011;40070;47.322;18.784;2023-04-10T09:23:21;9.56;;;4.10;;
48809;SDS011;40070;47.322;18.784;2023-04-10T09:25:29;8.57;;;3.90;;
48809;SDS011;40070;47.322;18.784;2023-04-10T09:27:29;7.68;;;3.20;;
48809;SDS011;40070;47.322;18.784;2023-04-10T09:29:52;6.78;;;3.00;;
48809;SDS011;40070;47.322;18.784;2023-04-10T09:31:47;6.49;;;3.50;;
48809;SDS011;40070;47.322;18.784;2023-04-10T09:34:11;6.39;;;2.90;;
48809;SDS011;40070;47.322;18.784;2023-04-10T09:36:11;6.78;;;3.10;;
48809;SDS011;40070;47.322;18.784;2023-04-10T09:38:12;6.99;;;3.20;;
48809;SDS011;40070;47.322;18.784;2023-04-10T09:40:20;6.99;;;3.10;;
48809;SDS011;40070;47.322;18.784;2023-04-10T09:42:24;6.89;;;3.20;;
48809;SDS011;40070;47.322;18.784;2023-04-10T09:44:27;7.88;;;3.30;;
48809;SDS011;40070;47.322;18.784;2023-04-10T09:46:26;7.39;;;3.40;;
48809;SDS011;40070;47.322;18.784;2023-04-10T09:48:35;7.49;;;3.30;;
48809;SDS011;40070;47.322;18.784;2023-04-10T09:50:37;7.78;;;3.60;;
48809;SDS011;40070;47.322;18.784;2023-04-10T09:52:47;7.29;;;3.40;;
48809;SDS011;40070;47.322;18.784;2023-04-10T09:54:48;7.59;;;3.70;;
48809;SDS011;40070;47.322;18.784;2023-04-10T09:56:49;7.29;;;3.30;;
48809;SDS011;40070;47.322;18.784;2023-04-10T09:58:51;7.69;;;3.60;;
48809;SDS011;40070;47.322;18.784;2023-04-10T10:00:52;7.29;;;3.70;;
48809;SDS011;40070;47.322;18.784;2023-04-10T10:02:54;8.49;;;3.80;;
48809;SDS011;40070;47.322;18.784;2023-04-10T10:04:57;6.59;;;3.00;;
48809;SDS011;40070;47.322;18.784;2023-04-10T10:06:57;7.39;;;3.30;;
48809;SDS011;40070;47.322;18.784;2023-04-10T10:09:02;7.09;;;3.40;;
48809;SDS011;40070;47.322;18.784;2023-04-10T10:10:59;6.39;;;3.20;;
48809;SDS011;40070;47.322;18.784;2023-04-10T10:13:34;8.58;;;4.00;;
48809;SDS011;40070;47.322;18.784;2023-04-10T10:15:43;9.78;;;3.90;;
48809;SDS011;40070;47.322;18.784;2023-04-10T10:17:56;7.39;;;3.70;;
48809;SDS011;40070;47.322;18.784;2023-04-10T10:21:53;7.09;;;3.60;;
48809;SDS011;40070;47.322;18.784;2023-04-10T10:23:55;8.49;;;3.80;;
48809;SDS011;40070;47.322;18.784;2023-04-10T10:25:56;7.69;;;3.30;;
48809;SDS011;40070;47.322;18.784;2023-04-10T10:27:58;7.79;;;3.00;;
48809;SDS011;40070;47.322;18.784;2023-04-10T10:30:02;7.59;;;3.30;;
48809;SDS011;40070;47.322;18.784;2023-04-10T10:32:06;6.09;;;3.00;;
48809;SDS011;40070;47.322;18.784;2023-04-10T10:34:08;9.19;;;3.10;;
48809;SDS011;40070;47.322;18.784;2023-04-10T10:36:09;6.89;;;3.10;;
48809;SDS011;40070;47.322;18.784;2023-04-10T10:38:10;6.39;;;3.10;;
48809;SDS011;40070;47.322;18.784;2023-04-10T10:45:05;6.99;;;3.00;;
48809;SDS011;40070;47.322;18.784;2023-04-10T10:47:26;6.89;;;2.90;;
48809;SDS011;40070;47.322;18.784;2023-04-10T10:51:44;7.09;;;3.00;;
48809;SDS011;40070;47.322;18.784;2023-04-10T10:53:39;5.69;;;2.70;;
48809;SDS011;40070;47.322;18.784;2023-04-10T10:55:51;5.59;;;2.40;;
48809;SDS011;40070;47.322;18.784;2023-04-10T10:58:17;6.69;;;2.90;;
48809;SDS011;40070;47.322;18.784;2023-04-10T11:03:12;6.39;;;2.80;;
48809;SDS011;40070;47.322;18.784;2023-04-10T11:05:35;6.69;;;3.20;;
48809;SDS011;40070;47.322;18.784;2023-04-10T11:07:21;5.99;;;2.90;;
48809;SDS011;40070;47.322;18.784;2023-04-10T11:11:33;6.29;;;3.30;;
48809;SDS011;40070;47.322;18.784;2023-04-10T11:15:56;6.69;;;3.00;;
48809;SDS011;40070;47.322;18.784;2023-04-10T11:18:18;6.29;;;3.10;;
48809;SDS011;40070;47.322;18.784;2023-04-10T11:20:27;7.19;;;2.70;;
48809;SDS011;40070;47.322;18.784;2023-04-10T11:22:55;7.19;;;2.90;;
48809;SDS011;40070;47.322;18.784;2023-04-10T11:24:52;7.79;;;3.30;;
48809;SDS011;40070;47.322;18.784;2023-04-10T11:26:37;6.69;;;3.20;;
48809;SDS011;40070;47.322;18.784;2023-04-10T11:28:38;6.59;;;2.80;;
48809;SDS011;40070;47.322;18.784;2023-04-10T11:32:58;6.49;;;3.20;;
48809;SDS011;40070;47.322;18.784;2023-04-10T11:34:58;7.19;;;2.80;;
48809;SDS011;40070;47.322;18.784;2023-04-10T11:36:59;6.99;;;3.10;;
48809;SDS011;40070;47.322;18.784;2023-04-10T11:39:01;6.79;;;2.80;;
48809;SDS011;40070;47.322;18.784;2023-04-10T11:41:02;7.49;;;2.90;;
48809;SDS011;40070;47.322;18.784;2023-04-10T11:43:14;6.39;;;3.10;;
48809;SDS011;40070;47.322;18.784;2023-04-10T11:45:25;6.19;;;2.90;;
48809;SDS011;40070;47.322;18.784;2023-04-10T11:47:11;6.29;;;2.90;;
48809;SDS011;40070;47.322;18.784;2023-04-10T11:49:09;7.78;;;3.10;;
48809;SDS011;40070;47.322;18.784;2023-04-10T11:51:11;6.78;;;3.10;;
48809;SDS011;40070;47.322;18.784;2023-04-10T11:53:17;7.88;;;3.60;;
48809;SDS011;40070;47.322;18.784;2023-04-10T11:55:18;6.78;;;3.30;;
48809;SDS011;40070;47.322;18.784;2023-04-10T11:57:33;6.79;;;2.80;;
48809;SDS011;40070;47.322;18.784;2023-04-10T11:59:31;6.49;;;3.20;;
48809;SDS011;40070;47.322;18.784;2023-04-10T12:01:33;5.99;;;2.90;;
48809;SDS011;40070;47.322;18.784;2023-04-10T12:03:34;6.49;;;3.00;;
48809;SDS011;40070;47.322;18.784;2023-04-10T12:05:48;5.89;;;2.60;;
48809;SDS011;40070;47.322;18.784;2023-04-10T12:07:37;5.79;;;2.50;;
48809;SDS011;40070;47.322;18.784;2023-04-10T12:09:44;6.69;;;3.00;;
48809;SDS011;40070;47.322;18.784;2023-04-10T12:11:51;6.19;;;3.20;;
48809;SDS011;40070;47.322;18.784;2023-04-10T12:13:56;8.88;;;3.50;;
48809;SDS011;40070;47.322;18.784;2023-04-10T12:16:01;7.88;;;3.60;;
48809;SDS011;40070;47.322;18.784;2023-04-10T12:18:01;8.57;;;3.80;;
48809;SDS011;40070;47.322;18.784;2023-04-10T12:20:03;8.17;;;3.10;;
48809;SDS011;40070;47.322;18.784;2023-04-10T12:22:06;7.68;;;3.50;;